createdAt,value
2022-11-03T00:00:06.589Z,101409.34
2022-11-03T00:02:39.275Z,101392.69
2022-11-03T00:05:27.195Z,101403.84
2022-11-03T00:07:54.656Z,101404.69
2022-11-03T00:10:22.352Z,101404.81
2022-11-03T00:12:49.738Z,101403.59
2022-11-03T00:15:17.204Z,101404.28
2022-11-03T00:17:46.534Z,101397.94
2022-11-03T00:20:13.969Z,101408.38
2022-11-03T00:22:41.370Z,101407.44
2022-11-03T00:25:09.401Z,101407.44
2022-11-03T00:27:36.964Z,101405.75
2022-11-03T00:30:04.658Z,101392.59
2022-11-03T00:32:32.377Z,101405.63
2022-11-03T00:34:59.847Z,101411.00
2022-11-03T00:37:27.319Z,101405.66
2022-11-03T00:39:55.019Z,101388.50
2022-11-03T00:42:22.670Z,101406.78
2022-11-03T00:44:50.130Z,101405.03
2022-11-03T00:47:21.655Z,101392.13
2022-11-03T00:49:51.686Z,101409.41
2022-11-03T00:52:19.423Z,101403.25
2022-11-03T00:54:48.997Z,101389.69
2022-11-03T00:57:20.429Z,101401.56
2022-11-03T00:59:47.856Z,101407.16
2022-11-03T01:02:15.365Z,101402.03
2022-11-03T01:05:01.573Z,101408.25
2022-11-03T01:07:29.092Z,101395.41
2022-11-03T01:09:57.952Z,101402.13
2022-11-03T01:12:25.403Z,101397.88
2022-11-03T01:14:53.559Z,101398.66
2022-11-03T01:17:26.619Z,101388.53
2022-11-03T01:19:54.670Z,101396.50
2022-11-03T01:22:23.553Z,101411.19
2022-11-03T01:24:54.138Z,101404.44
2022-11-03T01:27:24.963Z,101397.50
2022-11-03T01:29:53.123Z,101398.19
2022-11-03T01:32:20.558Z,101401.66
2022-11-03T01:34:48.480Z,101383.34
2022-11-03T01:37:15.966Z,101390.38
2022-11-03T01:39:43.380Z,101385.97
2022-11-03T01:42:12.869Z,101391.16
2022-11-03T01:44:45.411Z,101388.31
2022-11-03T01:47:28.420Z,101384.03
2022-11-03T01:50:07.148Z,101385.78
2022-11-03T01:52:39.380Z,101389.41
2022-11-03T01:55:35.740Z,101379.87
2022-11-03T01:58:22.198Z,101380.78
2022-11-03T02:00:52.532Z,101365.87
2022-11-03T02:03:21.225Z,101379.09
2022-11-03T02:05:50.144Z,101368.66
2022-11-03T02:08:36.882Z,101343.66
2022-11-03T02:11:24.638Z,101381.09
2022-11-03T02:13:52.465Z,101376.75
2022-11-03T02:16:21.337Z,101368.09
2022-11-03T02:18:49.783Z,101361.34
2022-11-03T02:21:28.002Z,101366.63
2022-11-03T02:24:09.215Z,101364.12
2022-11-03T02:26:36.662Z,101363.22
2022-11-03T02:29:04.381Z,101364.22
2022-11-03T02:31:48.543Z,101364.22
2022-11-03T02:34:24.209Z,101352.84
2022-11-03T02:36:55.986Z,101342.59
2022-11-03T02:39:40.777Z,101349.00
2022-11-03T02:42:09.165Z,101361.97
2022-11-03T02:44:37.225Z,101364.72
2022-11-03T02:47:08.347Z,101368.44
2022-11-03T02:52:37.468Z,101351.56
2022-11-03T02:55:12.283Z,101367.03
2022-11-03T02:57:46.322Z,101368.09
2022-11-03T03:00:15.200Z,101357.47
2022-11-03T03:02:56.255Z,101361.00
2022-11-03T03:05:25.795Z,101361.00
2022-11-03T03:07:57.584Z,101366.19
2022-11-03T03:10:27.837Z,101361.81
2022-11-03T03:12:57.948Z,101369.81
2022-11-03T03:15:36.867Z,101365.56
2022-11-03T03:18:16.327Z,101366.44
2022-11-03T03:21:13.794Z,101364.75
2022-11-03T03:23:49.798Z,101375.34
2022-11-03T03:26:40.905Z,101370.16
2022-11-03T03:29:15.095Z,101370.28
2022-11-03T03:31:47.994Z,101362.47
2022-11-03T03:34:33.999Z,101375.38
2022-11-03T03:37:03.393Z,101378.81
2022-11-03T03:39:34.579Z,101371.84
2022-11-03T03:42:02.688Z,101367.50
2022-11-03T03:44:30.903Z,101375.47
2022-11-03T03:47:01.791Z,101371.16
2022-11-03T03:49:29.274Z,101366.72
2022-11-03T03:51:56.724Z,101360.78
2022-11-03T03:54:24.457Z,101371.03
2022-11-03T03:57:03.609Z,101363.38
2022-11-03T03:59:31.597Z,101369.13
2022-11-03T04:01:59.554Z,101360.88
2022-11-03T04:04:27.356Z,101377.72
2022-11-03T04:07:14.782Z,101374.44
2022-11-03T04:09:43.048Z,101373.78
2022-11-03T04:12:29.109Z,101377.13
2022-11-03T04:15:15.487Z,101373.47
2022-11-03T04:18:05.599Z,101377.78
2022-11-03T04:20:52.211Z,101368.06
2022-11-03T04:23:19.955Z,101355.09
2022-11-03T04:25:53.113Z,101367.09
2022-11-03T04:28:21.040Z,101372.34
2022-11-03T04:30:48.876Z,101367.66
2022-11-03T04:33:18.577Z,101359.97
2022-11-03T04:35:47.096Z,101365.37
2022-11-03T04:38:14.710Z,101382.06
2022-11-03T04:40:45.661Z,101369.69
2022-11-03T04:43:16.355Z,101371.34
2022-11-03T04:45:45.669Z,101368.44
2022-11-03T04:48:23.449Z,101367.50
2022-11-03T04:50:57.792Z,101366.63
2022-11-03T04:53:28.835Z,101365.22
2022-11-03T04:55:56.537Z,101365.28
2022-11-03T04:58:26.908Z,101364.47
2022-11-03T05:00:57.673Z,101358.31
2022-11-03T05:03:35.701Z,101357.56
2022-11-03T05:06:20.286Z,101358.47
2022-11-03T05:08:52.516Z,101357.56
2022-11-03T05:11:32.915Z,101360.13
2022-11-03T05:14:12.624Z,101354.09
2022-11-03T05:16:40.241Z,101360.75
2022-11-03T05:19:29.132Z,101358.41
2022-11-03T05:21:59.095Z,101358.31
2022-11-03T05:24:27.747Z,101359.09
2022-11-03T05:26:56.366Z,101358.25
2022-11-03T05:29:32.963Z,101360.06
2022-11-03T05:32:00.999Z,101362.84
2022-11-03T05:34:32.155Z,101360.91
2022-11-03T05:37:26.138Z,101365.25
2022-11-03T05:39:59.781Z,101363.75
2022-11-03T05:42:36.794Z,101371.06
2022-11-03T05:45:24.898Z,101376.41
2022-11-03T05:47:54.636Z,101361.84
2022-11-03T05:50:31.031Z,101383.25
2022-11-03T05:53:26.854Z,101386.56
2022-11-03T05:56:00.996Z,101392.75
2022-11-03T05:58:35.665Z,101390.38
2022-11-03T06:01:18.843Z,101385.06
2022-11-03T06:03:47.178Z,101367.25
2022-11-03T06:06:32.438Z,101394.97
2022-11-03T06:09:09.909Z,101397.06
2022-11-03T06:11:37.837Z,101377.03
2022-11-03T06:14:24.031Z,101398.63
2022-11-03T06:17:18.461Z,101403.09
2022-11-03T06:19:48.201Z,101387.22
2022-11-03T06:22:19.813Z,101389.75
2022-11-03T06:24:47.559Z,101408.53
2022-11-03T06:27:23.966Z,101413.16
2022-11-03T06:30:25.724Z,101422.72
2022-11-03T06:32:54.859Z,101418.84
2022-11-03T06:35:22.890Z,101422.12
2022-11-03T06:37:50.736Z,101417.84
2022-11-03T06:40:18.181Z,101398.63
2022-11-03T06:42:45.926Z,101423.31
2022-11-03T06:45:21.885Z,101419.97
2022-11-03T06:47:51.232Z,101412.22
2022-11-03T06:50:44.645Z,101411.56
2022-11-03T06:53:19.709Z,101415.56
2022-11-03T06:55:48.794Z,101395.12
2022-11-03T06:58:27.337Z,101400.94
2022-11-03T07:01:02.821Z,101421.94
2022-11-03T07:03:37.883Z,101420.13
2022-11-03T07:06:27.256Z,101421.88
2022-11-03T07:08:58.197Z,101428.84
2022-11-03T07:11:30.494Z,101408.75
2022-11-03T07:14:03.059Z,101429.69
2022-11-03T07:16:57.711Z,101423.44
2022-11-03T07:19:28.035Z,101409.19
2022-11-03T07:22:01.859Z,101420.19
2022-11-03T07:24:41.782Z,101412.16
2022-11-03T07:27:29.278Z,101425.59
2022-11-03T07:30:00.829Z,101423.94
2022-11-03T07:32:31.547Z,101418.81
2022-11-03T07:35:18.175Z,101419.59
2022-11-03T07:37:47.680Z,101415.84
2022-11-03T07:40:19.072Z,101418.97
2022-11-03T07:42:46.643Z,101413.97
2022-11-03T07:45:44.167Z,101404.50
2022-11-03T07:48:18.712Z,101420.78
2022-11-03T07:50:57.616Z,101429.00
2022-11-03T07:53:36.128Z,101422.03
2022-11-03T07:56:14.180Z,101414.31
2022-11-03T07:58:42.969Z,101417.78
2022-11-03T08:01:23.881Z,101416.84
2022-11-03T08:03:52.112Z,101410.75
2022-11-03T08:06:20.150Z,101415.09
2022-11-03T08:08:47.817Z,101413.25
2022-11-03T08:11:15.722Z,101423.75
2022-11-03T08:13:43.356Z,101410.41
2022-11-03T08:16:11.044Z,101403.28
2022-11-03T08:18:38.817Z,101396.00
2022-11-03T08:21:06.283Z,101388.25
2022-11-03T08:23:34.041Z,101389.87
2022-11-03T08:26:02.267Z,101399.13
2022-11-03T08:28:29.840Z,101404.22
2022-11-03T08:31:02.276Z,101404.72
2022-11-03T08:33:32.260Z,101394.03
2022-11-03T08:36:00.347Z,101395.63
2022-11-03T08:38:28.363Z,101398.00
2022-11-03T08:40:56.832Z,101399.59
2022-11-03T08:43:25.028Z,101396.53
2022-11-03T08:45:53.845Z,101400.78
2022-11-03T08:48:27.321Z,101389.78
2022-11-03T08:50:55.975Z,101382.47
2022-11-03T08:53:28.071Z,101385.41
2022-11-03T08:55:57.003Z,101383.44
2022-11-03T08:58:25.269Z,101376.03
2022-11-03T09:00:52.818Z,101379.81
2022-11-03T09:03:20.643Z,101376.37
2022-11-03T09:05:48.835Z,101376.50
2022-11-03T09:11:05.052Z,101360.44
2022-11-03T09:13:32.550Z,101375.41
2022-11-03T09:16:00.089Z,101384.34
2022-11-03T09:18:28.568Z,101377.44
2022-11-03T09:20:56.535Z,101378.59
2022-11-03T09:23:24.720Z,101379.06
2022-11-03T09:25:53.044Z,101377.81
2022-11-03T09:28:20.572Z,101382.34
2022-11-03T09:30:48.129Z,101361.03
2022-11-03T09:33:15.965Z,101373.44
2022-11-03T09:35:43.600Z,101362.94
2022-11-03T09:38:11.968Z,101363.50
2022-11-03T09:40:39.955Z,101362.50
2022-11-03T09:43:07.826Z,101359.00
2022-11-03T09:45:35.820Z,101355.41
2022-11-03T09:48:04.085Z,101339.00
2022-11-03T09:50:32.289Z,101343.81
2022-11-03T09:52:59.888Z,101340.25
2022-11-03T09:55:27.793Z,101335.03
2022-11-03T09:58:02.192Z,101340.09
2022-11-03T10:00:32.375Z,101340.81
2022-11-03T10:03:01.532Z,101343.47
2022-11-03T10:05:30.899Z,101337.22
2022-11-03T10:08:03.855Z,101332.78
2022-11-03T10:10:32.548Z,101331.87
2022-11-03T10:13:02.409Z,101330.00
2022-11-03T10:15:35.833Z,101331.66
2022-11-03T10:18:57.615Z,101319.31
2022-11-03T10:21:29.071Z,101319.31
2022-11-03T10:23:56.688Z,101320.31
2022-11-03T10:26:24.228Z,101314.41
2022-11-03T10:29:05.303Z,101321.47
2022-11-03T10:31:37.827Z,101310.88
2022-11-03T10:34:07.203Z,101310.50
2022-11-03T10:36:35.049Z,101306.06
2022-11-03T10:39:29.592Z,101303.09
2022-11-03T10:41:58.766Z,101301.28
2022-11-03T10:44:28.250Z,101300.53
2022-11-03T10:47:00.643Z,101292.31
2022-11-03T10:49:36.535Z,101295.28
2022-11-03T10:52:20.556Z,101292.62
2022-11-03T10:54:49.887Z,101283.97
2022-11-03T10:57:17.709Z,101278.59
2022-11-03T10:59:47.306Z,101281.22
2022-11-03T11:02:23.446Z,101275.78
2022-11-03T11:04:59.354Z,101273.81
2022-11-03T11:07:31.325Z,101271.19
2022-11-03T11:10:06.386Z,101260.22
2022-11-03T11:12:42.690Z,101263.31
2022-11-03T11:15:51.076Z,101253.22
2022-11-03T11:18:52.113Z,101257.34
2022-11-03T11:21:19.487Z,101250.75
2022-11-03T11:23:48.715Z,101240.69
2022-11-03T11:26:17.818Z,101241.69
2022-11-03T11:29:10.359Z,101237.44
2022-11-03T11:31:42.041Z,101228.88
2022-11-03T11:34:10.362Z,101228.81
2022-11-03T11:36:48.159Z,101218.47
2022-11-03T11:39:24.860Z,101205.25
2022-11-03T11:42:15.402Z,101222.81
2022-11-03T11:44:42.952Z,101221.88
2022-11-03T11:47:30.480Z,101217.25
2022-11-03T11:50:07.226Z,101210.09
2022-11-03T11:52:58.551Z,101193.50
2022-11-03T11:55:30.384Z,101199.22
2022-11-03T11:57:59.912Z,101196.47
2022-11-03T12:00:30.583Z,101196.88
2022-11-03T12:03:00.087Z,101192.78
2022-11-03T12:05:32.494Z,101177.16
2022-11-03T12:08:00.667Z,101188.94
2022-11-03T12:10:31.371Z,101174.75
2022-11-03T12:13:00.355Z,101181.66
2022-11-03T12:15:52.603Z,101180.47
2022-11-03T12:18:38.865Z,101182.56
2022-11-03T12:21:16.329Z,101173.69
2022-11-03T12:23:48.260Z,101167.84
2022-11-03T12:26:45.383Z,101172.03
2022-11-03T12:29:19.974Z,101170.56
2022-11-03T12:31:50.334Z,101165.72
2022-11-03T12:34:18.863Z,101165.06
2022-11-03T12:36:54.741Z,101158.19
2022-11-03T12:39:23.647Z,101148.66
2022-11-03T12:41:51.457Z,101148.06
2022-11-03T12:44:19.058Z,101137.28
2022-11-03T12:46:47.119Z,101138.16
2022-11-03T12:49:14.922Z,101127.47
2022-11-03T12:51:42.625Z,101126.03
2022-11-03T12:54:10.080Z,101126.53
2022-11-03T12:56:37.893Z,101117.66
2022-11-03T12:59:05.698Z,101097.84
2022-11-03T13:01:33.403Z,101098.53
2022-11-03T13:04:01.458Z,101092.66
2022-11-03T13:06:29.269Z,101090.50
2022-11-03T13:08:56.847Z,101090.50
2022-11-03T13:11:43.517Z,101092.50
2022-11-03T13:14:11.558Z,101088.31
2022-11-03T13:16:39.458Z,101088.53
2022-11-03T13:19:07.180Z,101081.22
2022-11-03T13:21:34.930Z,101083.94
2022-11-03T13:24:02.784Z,101085.88
2022-11-03T13:26:30.329Z,101079.94
2022-11-03T13:28:57.812Z,101075.50
2022-11-03T13:31:25.732Z,101074.78
2022-11-03T13:33:53.400Z,101076.66
2022-11-03T13:36:21.049Z,101072.22
2022-11-03T13:38:49.004Z,101077.59
2022-11-03T13:41:16.801Z,101065.31
2022-11-03T13:43:44.305Z,101068.91
2022-11-03T13:46:12.979Z,101063.84
2022-11-03T13:51:28.607Z,101059.38
2022-11-03T13:59:31.860Z,101048.78
2022-11-03T14:04:47.919Z,101040.06
2022-11-03T14:07:15.470Z,101036.56
2022-11-03T14:09:43.085Z,101035.72
2022-11-03T14:12:29.559Z,101035.81
2022-11-03T14:15:10.978Z,101032.38
2022-11-03T14:17:40.450Z,101018.88
2022-11-03T14:20:11.509Z,101021.94
2022-11-03T14:22:40.476Z,101026.38
2022-11-03T14:25:08.467Z,101016.16
2022-11-03T14:27:36.452Z,101027.34
2022-11-03T14:30:05.290Z,101009.38
2022-11-03T14:32:33.979Z,101022.19
2022-11-03T14:35:01.811Z,101022.28
2022-11-03T14:37:29.765Z,101029.44
2022-11-03T14:39:57.529Z,101026.03
2022-11-03T14:42:25.059Z,101027.06
2022-11-03T14:47:25.785Z,101031.88
2022-11-03T14:49:53.635Z,101038.38
2022-11-03T14:52:21.186Z,101035.97
2022-11-03T14:54:48.769Z,101037.13
2022-11-03T14:57:17.117Z,101033.87
2022-11-03T14:59:46.817Z,101030.53
2022-11-03T15:02:18.492Z,101027.13
2022-11-03T15:04:46.161Z,101024.56
2022-11-03T15:07:13.718Z,101016.72
2022-11-03T15:09:41.468Z,101009.87
2022-11-03T15:12:08.978Z,101008.31
2022-11-03T15:14:36.528Z,101003.28
2022-11-03T15:17:04.406Z,101000.84
2022-11-03T15:19:36.966Z,101000.25
2022-11-03T15:22:17.045Z,101001.41
2022-11-03T15:27:39.610Z,100991.47
2022-11-03T15:30:08.053Z,100992.63
2022-11-03T15:32:40.864Z,100990.22
2022-11-03T15:35:21.530Z,100994.88
2022-11-03T15:37:58.830Z,100991.81
2022-11-03T15:40:26.694Z,100973.66
2022-11-03T15:42:56.827Z,100984.16
2022-11-03T15:45:28.157Z,100983.09
2022-11-03T15:48:07.010Z,100980.72
2022-11-03T15:50:34.914Z,100973.81
2022-11-03T15:53:02.360Z,100974.69
2022-11-03T15:55:29.814Z,100976.81
2022-11-03T15:57:57.634Z,100975.38
2022-11-03T16:00:25.247Z,100977.44
2022-11-03T16:02:53.108Z,100971.53
2022-11-03T16:05:24.954Z,100978.00
2022-11-03T16:07:53.152Z,100961.12
2022-11-03T16:10:20.718Z,100984.06
2022-11-03T16:12:48.411Z,100982.13
2022-11-03T16:15:16.237Z,100985.44
2022-11-03T16:17:45.663Z,100978.66
2022-11-03T16:20:13.627Z,100980.56
2022-11-03T16:22:41.482Z,100964.47
2022-11-03T16:25:14.211Z,100976.44
2022-11-03T16:27:43.564Z,100974.34
2022-11-03T16:30:11.729Z,100970.16
2022-11-03T16:32:39.487Z,100966.63
2022-11-03T16:35:07.713Z,100960.22
2022-11-03T16:37:35.533Z,100972.66
2022-11-03T16:40:04.454Z,100983.63
2022-11-03T16:42:38.373Z,100979.56
2022-11-03T16:45:27.630Z,100974.53
2022-11-03T16:47:56.086Z,100972.94
2022-11-03T16:50:23.697Z,100968.34
2022-11-03T16:52:51.383Z,100968.28
2022-11-03T16:55:19.921Z,100959.47
2022-11-03T16:57:47.470Z,100950.19
2022-11-03T17:00:20.104Z,100959.72
2022-11-03T17:02:48.292Z,100963.94
2022-11-03T17:05:17.717Z,100963.94
2022-11-03T17:07:50.217Z,100954.28
2022-11-03T17:10:22.370Z,100953.56
2022-11-03T17:12:50.600Z,100949.37
2022-11-03T17:15:18.324Z,100931.34
2022-11-03T17:17:46.414Z,100933.25
2022-11-03T17:20:14.279Z,100948.72
2022-11-03T17:22:41.820Z,100945.31
2022-11-03T17:25:11.741Z,100937.47
2022-11-03T17:27:51.989Z,100926.59
2022-11-03T17:30:25.044Z,100941.25
2022-11-03T17:32:58.564Z,100943.22
2022-11-03T17:35:39.547Z,100945.19
2022-11-03T17:38:13.968Z,100940.47
2022-11-03T17:40:43.888Z,100938.31
2022-11-03T17:43:22.622Z,100933.41
2022-11-03T17:45:51.117Z,100923.22
2022-11-03T17:48:18.690Z,100937.03
2022-11-03T17:50:48.758Z,100924.25
2022-11-03T17:53:20.155Z,100944.12
2022-11-03T17:56:02.920Z,100937.28
2022-11-03T17:58:44.848Z,100925.28
2022-11-03T18:01:16.722Z,100911.22
2022-11-03T18:03:44.685Z,100897.53
2022-11-03T18:06:16.804Z,100912.94
2022-11-03T18:08:45.707Z,100920.81
2022-11-03T18:11:35.505Z,100902.84
2022-11-03T18:14:03.695Z,100906.25
2022-11-03T18:16:31.738Z,100900.22
2022-11-03T18:18:59.461Z,100902.13
2022-11-03T18:21:28.708Z,100903.03
2022-11-03T18:23:56.301Z,100898.84
2022-11-03T18:26:25.859Z,100902.41
2022-11-03T18:28:54.641Z,100893.72
2022-11-03T18:31:34.122Z,100883.34
2022-11-03T18:34:12.440Z,100887.03
2022-11-03T18:36:40.295Z,100890.69
2022-11-03T18:39:11.744Z,100871.97
2022-11-03T18:41:40.449Z,100884.00
2022-11-03T18:44:24.715Z,100879.00
2022-11-03T18:46:52.929Z,100874.81
2022-11-03T18:49:21.613Z,100873.28
2022-11-03T18:52:02.482Z,100855.41
2022-11-03T18:54:32.196Z,100870.84
2022-11-03T18:57:00.288Z,100868.38
2022-11-03T18:59:35.024Z,100863.31
2022-11-03T19:02:06.780Z,100856.38
2022-11-03T19:04:34.664Z,100849.69
2022-11-03T19:07:03.800Z,100839.22
2022-11-03T19:09:32.980Z,100838.44
2022-11-03T19:12:01.265Z,100838.44
2022-11-03T19:14:31.946Z,100828.91
2022-11-03T19:17:21.771Z,100823.06
2022-11-03T19:19:49.318Z,100818.75
2022-11-03T19:22:20.106Z,100829.06
2022-11-03T19:24:48.005Z,100826.53
2022-11-03T19:27:22.881Z,100827.53
2022-11-03T19:29:52.849Z,100818.00
2022-11-03T19:32:26.929Z,100825.09
2022-11-03T19:35:04.148Z,100825.19
2022-11-03T19:40:06.874Z,100820.84
2022-11-03T19:40:20.809Z,100813.88
2022-11-03T19:42:48.876Z,100816.63
2022-11-03T19:45:18.380Z,100825.69
2022-11-03T19:50:48.523Z,100817.91
2022-11-03T19:53:20.675Z,100810.13
2022-11-03T19:55:48.495Z,100810.97
2022-11-03T19:58:20.674Z,100803.06
2022-11-03T20:00:49.399Z,100803.13
2022-11-03T20:03:17.893Z,100781.62
2022-11-03T20:05:49.597Z,100790.97
2022-11-03T20:08:20.314Z,100772.16
2022-11-03T20:10:49.433Z,100780.59
2022-11-03T20:13:20.239Z,100774.44
2022-11-03T20:15:48.449Z,100775.38
2022-11-03T20:18:16.527Z,100762.50
2022-11-03T20:20:48.148Z,100766.66
2022-11-03T20:23:35.263Z,100754.75
2022-11-03T20:26:03.575Z,100747.81
2022-11-03T20:28:32.440Z,100760.59
2022-11-03T20:31:02.143Z,100748.50
2022-11-03T20:33:30.507Z,100753.81
2022-11-03T20:35:58.854Z,100748.72
2022-11-03T20:38:26.905Z,100740.91
2022-11-03T20:40:58.836Z,100741.97
2022-11-03T20:43:31.753Z,100747.22
2022-11-03T20:46:00.446Z,100735.06
2022-11-03T20:48:31.397Z,100737.69
2022-11-03T20:50:59.210Z,100733.34
2022-11-03T20:53:26.811Z,100734.28
2022-11-03T20:55:54.696Z,100732.53
2022-11-03T20:58:22.242Z,100722.13
2022-11-03T21:00:49.980Z,100713.41
2022-11-03T21:03:37.701Z,100710.09
2022-11-03T21:06:11.027Z,100705.94
2022-11-03T21:08:38.993Z,100704.97
2022-11-03T21:11:27.665Z,100699.75
2022-11-03T21:13:58.149Z,100696.31
2022-11-03T21:16:45.977Z,100695.50
2022-11-03T21:19:40.094Z,100693.09
2022-11-03T21:22:50.383Z,100684.31
2022-11-03T21:25:11.936Z,100680.06
2022-11-03T21:27:42.164Z,100676.56
2022-11-03T21:30:14.522Z,100668.78
2022-11-03T21:32:42.122Z,100657.50
2022-11-03T21:35:14.666Z,100652.31
2022-11-03T21:37:42.342Z,100641.91
2022-11-03T21:40:12.301Z,100637.66
2022-11-03T21:43:00.039Z,100641.25
2022-11-03T21:45:27.905Z,100646.47
2022-11-03T21:48:14.917Z,100632.53
2022-11-03T21:50:43.427Z,100625.62
2022-11-03T21:53:11.616Z,100627.59
2022-11-03T21:55:39.459Z,100627.94
2022-11-03T21:58:07.549Z,100621.75
2022-11-03T22:00:35.181Z,100626.00
2022-11-03T22:03:02.889Z,100629.22
2022-11-03T22:05:30.356Z,100633.53
2022-11-03T22:07:57.908Z,100635.44
2022-11-03T22:10:26.096Z,100636.25
2022-11-03T22:12:53.628Z,100630.94
2022-11-03T22:15:39.764Z,100607.50
2022-11-03T22:18:08.157Z,100620.19
2022-11-03T22:20:54.875Z,100627.13
2022-11-03T22:23:41.429Z,100623.09
2022-11-03T22:26:32.726Z,100609.91
2022-11-03T22:29:19.238Z,100600.19
2022-11-03T22:31:46.985Z,100600.84
2022-11-03T22:34:33.647Z,100605.09
2022-11-03T22:37:01.066Z,100591.88
2022-11-03T22:39:47.993Z,100581.28
2022-11-03T22:42:33.887Z,100578.50
2022-11-03T22:45:20.063Z,100584.62
2022-11-03T22:47:47.613Z,100578.47
2022-11-03T22:50:15.499Z,100573.38
2022-11-03T22:52:43.364Z,100578.63
2022-11-03T22:55:10.857Z,100576.88
2022-11-03T22:57:38.617Z,100560.97
2022-11-03T23:00:06.529Z,100542.91
2022-11-03T23:02:34.157Z,100553.06
2022-11-03T23:05:01.992Z,100554.63
2022-11-03T23:07:32.233Z,100555.50
2022-11-03T23:10:05.109Z,100547.78
2022-11-03T23:12:33.070Z,100563.88
2022-11-03T23:15:19.210Z,100550.03
2022-11-03T23:18:05.655Z,100545.19
2022-11-03T23:20:51.349Z,100533.47
2022-11-03T23:23:37.816Z,100532.44
2022-11-03T23:26:08.429Z,100527.22
2022-11-03T23:28:36.188Z,100523.00
2022-11-03T23:31:03.884Z,100517.47
2022-11-03T23:33:31.719Z,100515.66
2022-11-03T23:36:04.533Z,100514.69
2022-11-03T23:38:36.384Z,100519.25
2022-11-03T23:41:06.145Z,100517.41
2022-11-03T23:43:34.246Z,100505.06
2022-11-03T23:46:20.331Z,100493.56
2022-11-03T23:48:48.570Z,100498.63
2022-11-03T23:51:18.361Z,100488.13
2022-11-03T23:53:46.955Z,100475.03
2022-11-03T23:56:35.674Z,100470.63
2022-11-03T23:59:04.341Z,100465.44
